Time;durP1;ratioP1;P1;durP2;ratioP2;P2;SDS_P1;SDS_P2;PMS_P1;PMS_P2;Temp;Humidity;BMP_temperature;BMP_pressure;BME280_temperature;BME280_humidity;BME280_pressure;Samples;Min_cycle;Max_cycle;Signal;HPM_P1;HPM_P2
2022/07/23 00:00:40;;;;;;;0.60;0.60;;;;;;;;;;5076219;27;93468;-63
2022/07/23 00:03:07;;;;;;;1.15;0.60;;;;;;;;;;5075432;27;92486;-63
2022/07/23 00:05:33;;;;;;;0.85;0.68;;;;;;;;;;5079304;27;92477;-63
2022/07/23 00:08:00;;;;;;;1.17;0.60;;;;;;;;;;5075960;27;93843;-62
2022/07/23 00:10:27;;;;;;;0.63;0.63;;;;;;;;;;5076354;27;92496;-64
2022/07/23 00:12:53;;;;;;;0.82;0.80;;;;;;;;;;5076361;27;93170;-62
2022/07/23 00:15:19;;;;;;;0.85;0.70;;;;;;;;;;5076980;27;92603;-63
2022/07/23 00:17:45;;;;;;;0.85;0.70;;;;;;;;;;5076600;27;92405;-62
2022/07/23 00:20:12;;;;;;;0.63;0.50;;;;;;;;;;5074446;27;94819;-63
2022/07/23 00:22:48;;;;;;;0.80;0.80;;;;;;;;;;5075957;27;93335;-62
2022/07/23 00:25:14;;;;;;;0.68;0.50;;;;;;;;;;5075851;27;92434;-63
2022/07/23 00:27:57;;;;;;;0.55;0.55;;;;;;;;;;5079103;27;93150;-63
2022/07/23 00:30:24;;;;;;;0.60;0.60;;;;;;;;;;5076129;27;92464;-63
2022/07/23 00:32:52;;;;;;;0.82;0.50;;;;;;;;;;5076313;27;94172;-62
2022/07/23 00:35:23;;;;;;;0.65;0.65;;;;;;;;;;5076352;27;94564;-63
2022/07/23 00:37:49;;;;;;;0.90;0.60;;;;;;;;;;5076148;27;91735;-63
2022/07/23 00:40:15;;;;;;;0.80;0.70;;;;;;;;;;5057637;27;92968;-62
2022/07/23 00:42:42;;;;;;;0.50;0.50;;;;;;;;;;5075981;27;95031;-63
2022/07/23 00:45:09;;;;;;;1.67;0.50;;;;;;;;;;5075094;27;95125;-63
2022/07/23 00:47:35;;;;;;;0.57;0.57;;;;;;;;;;5075669;27;95353;-63
2022/07/23 00:50:05;;;;;;;1.95;0.77;;;;;;;;;;5078472;27;93751;-65
2022/07/23 00:52:32;;;;;;;;;;;;;;;;;;5076300;27;93631;-63
2022/07/23 00:54:58;;;;;;;1.00;0.75;;;;;;;;;;5075910;27;121023;-63
2022/07/23 00:57:25;;;;;;;1.70;0.70;;;;;;;;;;5076208;27;92466;-63
2022/07/23 00:59:54;;;;;;;0.68;0.60;;;;;;;;;;5076167;27;94303;-63
2022/07/23 01:02:20;;;;;;;0.90;0.70;;;;;;;;;;5075657;27;92790;-62
2022/07/23 01:04:47;;;;;;;0.60;0.60;;;;;;;;;;5075489;27;93761;-63
2022/07/23 01:07:13;;;;;;;0.95;0.80;;;;;;;;;;5075631;27;92981;-63
2022/07/23 01:09:40;;;;;;;0.88;0.60;;;;;;;;;;5073909;27;96896;-62
2022/07/23 01:12:06;;;;;;;0.60;0.60;;;;;;;;;;5078788;27;92270;-62
2022/07/23 01:14:33;;;;;;;0.40;0.40;;;;;;;;;;5075384;27;93437;-62
2022/07/23 01:16:59;;;;;;;3.05;0.68;;;;;;;;;;5076064;27;92426;-63
2022/07/23 01:19:26;;;;;;;0.70;0.70;;;;;;;;;;5075002;27;93151;-62
2022/07/23 01:21:53;;;;;;;1.08;0.60;;;;;;;;;;5074758;27;93496;-62
2022/07/23 01:24:19;;;;;;;0.85;0.65;;;;;;;;;;5076004;27;92330;-63
2022/07/23 01:26:46;;;;;;;0.93;0.70;;;;;;;;;;5079894;27;94139;-62
2022/07/23 01:29:13;;;;;;;1.45;0.57;;;;;;;;;;5078713;27;93573;-62
2022/07/23 01:31:39;;;;;;;0.50;0.50;;;;;;;;;;5082080;27;92486;-62
2022/07/23 01:34:06;;;;;;;1.63;0.57;;;;;;;;;;5076622;27;96230;-63
2022/07/23 01:36:33;;;;;;;2.60;0.50;;;;;;;;;;5078420;27;92728;-62
2022/07/23 01:39:00;;;;;;;0.60;0.57;;;;;;;;;;5079092;27;93240;-63
2022/07/23 01:41:26;;;;;;;0.68;0.57;;;;;;;;;;5078258;27;93859;-62
2022/07/23 01:43:53;;;;;;;1.30;0.57;;;;;;;;;;5078971;27;92399;-63
2022/07/23 01:46:19;;;;;;;1.55;0.63;;;;;;;;;;5078725;27;93246;-63
2022/07/23 01:48:46;;;;;;;1.92;0.40;;;;;;;;;;5078997;27;92622;-63
2022/07/23 01:51:12;;;;;;;1.17;0.63;;;;;;;;;;5079580;27;91616;-62
2022/07/23 01:53:38;;;;;;;1.27;0.70;;;;;;;;;;5081567;27;92632;-63
2022/07/23 01:56:05;;;;;;;1.27;0.70;;;;;;;;;;5078411;27;92377;-63
2022/07/23 01:58:31;;;;;;;0.57;0.50;;;;;;;;;;5076968;27;94742;-63
2022/07/23 02:00:58;;;;;;;0.82;0.70;;;;;;;;;;5078217;27;93611;-63
2022/07/23 02:03:24;;;;;;;0.60;0.55;;;;;;;;;;5078672;27;92509;-62
2022/07/23 02:05:51;;;;;;;0.52;0.50;;;;;;;;;;5078614;27;94204;-62
2022/07/23 02:08:17;;;;;;;0.93;0.60;;;;;;;;;;5078294;27;93289;-63
2022/07/23 02:10:44;;;;;;;0.77;0.70;;;;;;;;;;5078324;27;92432;-63
2022/07/23 02:13:10;;;;;;;3.70;0.88;;;;;;;;;;5078292;27;93351;-62
2022/07/23 02:15:43;;;;;;;0.60;0.60;;;;;;;;;;5082017;27;92754;-63
2022/07/23 02:18:10;;;;;;;0.50;0.50;;;;;;;;;;5078457;27;93230;-63
2022/07/23 02:20:38;;;;;;;0.50;0.50;;;;;;;;;;5077983;27;93522;-63
2022/07/23 02:23:05;;;;;;;0.60;0.60;;;;;;;;;;5076457;27;94826;-63
2022/07/23 02:25:31;;;;;;;0.60;0.60;;;;;;;;;;5077911;27;95695;-63
2022/07/23 02:27:57;;;;;;;0.68;0.68;;;;;;;;;;5077797;27;93836;-63
2022/07/23 02:30:24;;;;;;;0.75;0.50;;;;;;;;;;5077818;27;92519;-63
2022/07/23 02:32:50;;;;;;;0.52;0.52;;;;;;;;;;5077757;27;93224;-62
2022/07/23 02:35:16;;;;;;;0.57;0.57;;;;;;;;;;5077595;27;93765;-62
2022/07/23 02:37:43;;;;;;;1.10;0.50;;;;;;;;;;5080894;27;92441;-62
2022/07/23 02:40:09;;;;;;;0.50;0.50;;;;;;;;;;5078241;27;92748;-62
2022/07/23 02:42:36;;;;;;;0.50;0.50;;;;;;;;;;5077478;27;92360;-63
2022/07/23 02:45:02;;;;;;;0.73;0.50;;;;;;;;;;5078761;27;94784;-63
2022/07/23 02:47:28;;;;;;;1.33;0.75;;;;;;;;;;5075776;27;95835;-62
2022/07/23 02:49:55;;;;;;;0.82;0.63;;;;;;;;;;5077536;27;92575;-63
2022/07/23 02:52:21;;;;;;;0.40;0.40;;;;;;;;;;5078110;27;92348;-62
2022/07/23 02:54:48;;;;;;;0.70;0.70;;;;;;;;;;5078238;27;94689;-63
2022/07/23 02:57:14;;;;;;;3.00;0.70;;;;;;;;;;5077293;27;92466;-62
2022/07/23 02:59:40;;;;;;;1.00;0.55;;;;;;;;;;5080407;27;92446;-63
2022/07/23 03:02:07;;;;;;;0.90;0.55;;;;;;;;;;5077745;27;93374;-62
2022/07/23 03:04:33;;;;;;;1.98;0.80;;;;;;;;;;5077646;27;93302;-62
2022/07/23 03:06:59;;;;;;;0.60;0.60;;;;;;;;;;5077300;27;93667;-63
2022/07/23 03:09:26;;;;;;;1.15;0.60;;;;;;;;;;5077112;27;92450;-62
2022/07/23 03:11:52;;;;;;;0.75;0.75;;;;;;;;;;5075607;27;94813;-62
2022/07/23 03:14:18;;;;;;;0.43;0.43;;;;;;;;;;5077036;27;93723;-63
2022/07/23 03:16:44;;;;;;;1.27;0.60;;;;;;;;;;5077395;27;92460;-63
2022/07/23 03:19:11;;;;;;;0.70;0.70;;;;;;;;;;5080551;27;94674;-63
2022/07/23 03:21:40;;;;;;;0.70;0.70;;;;;;;;;;5077413;27;93559;-63
2022/07/23 03:24:09;;;;;;;1.13;0.60;;;;;;;;;;5077223;27;93516;-62
2022/07/23 03:26:36;;;;;;;0.60;0.60;;;;;;;;;;5076719;27;93639;-63
2022/07/23 03:29:03;;;;;;;0.60;0.60;;;;;;;;;;5077834;27;91728;-63
2022/07/23 03:31:34;;;;;;;0.82;0.63;;;;;;;;;;5059115;27;92465;-63
2022/07/23 03:34:00;;;;;;;2.85;0.90;;;;;;;;;;5076937;27;94589;-63
2022/07/23 03:36:26;;;;;;;0.77;0.60;;;;;;;;;;5075274;27;94943;-63
2022/07/23 03:38:53;;;;;;;0.50;0.50;;;;;;;;;;5058557;27;95611;-63
2022/07/23 03:41:20;;;;;;;0.60;0.60;;;;;;;;;;5079628;27;93518;-62
2022/07/23 03:43:46;;;;;;;1.58;0.70;;;;;;;;;;5076761;27;93272;-63
2022/07/23 03:46:13;;;;;;;1.67;0.63;;;;;;;;;;5077449;27;94729;-62
2022/07/23 03:48:39;;;;;;;1.17;0.40;;;;;;;;;;5075990;27;92385;-63
2022/07/23 03:51:06;;;;;;;3.55;0.82;;;;;;;;;;5076875;27;93491;-62
2022/07/23 03:53:32;;;;;;;0.60;0.60;;;;;;;;;;5077113;27;92504;-63
2022/07/23 03:55:58;;;;;;;0.50;0.50;;;;;;;;;;5076653;27;92454;-63
2022/07/23 03:58:25;;;;;;;1.30;0.68;;;;;;;;;;5076303;27;93113;-62
2022/07/23 04:00:51;;;;;;;0.70;0.50;;;;;;;;;;5075161;27;94763;-63
2022/07/23 04:03:18;;;;;;;0.77;0.65;;;;;;;;;;5079363;27;92416;-63
2022/07/23 04:05:44;;;;;;;0.60;0.60;;;;;;;;;;5076347;27;93511;-62
2022/07/23 04:08:10;;;;;;;0.60;0.50;;;;;;;;;;5075919;27;92501;-63
2022/07/23 04:10:37;;;;;;;0.80;0.57;;;;;;;;;;5076585;27;94457;-63
2022/07/23 04:13:03;;;;;;;0.77;0.60;;;;;;;;;;5058212;27;93462;-62
2022/07/23 04:15:30;;;;;;;0.60;0.60;;;;;;;;;;5076837;27;92432;-62
2022/07/23 04:17:56;;;;;;;0.60;0.60;;;;;;;;;;5076976;27;94227;-63
2022/07/23 04:20:22;;;;;;;0.70;0.70;;;;;;;;;;5075948;27;93245;-62
2022/07/23 04:22:48;;;;;;;0.65;0.60;;;;;;;;;;5076198;27;92362;-62
2022/07/23 04:25:17;;;;;;;0.50;0.50;;;;;;;;;;5077382;27;94714;-64
2022/07/23 04:27:43;;;;;;;0.50;0.50;;;;;;;;;;5075980;27;92427;-63
2022/07/23 04:30:09;;;;;;;0.50;0.50;;;;;;;;;;5075995;27;93192;-63
2022/07/23 04:32:36;;;;;;;1.45;0.60;;;;;;;;;;5075863;27;92476;-63
2022/07/23 04:35:02;;;;;;;0.47;0.47;;;;;;;;;;5075969;27;93740;-65
2022/07/23 04:37:28;;;;;;;0.50;0.50;;;;;;;;;;5075867;27;92655;-62
2022/07/23 04:39:55;;;;;;;1.60;0.70;;;;;;;;;;5076245;27;94553;-63
2022/07/23 04:42:21;;;;;;;0.57;0.50;;;;;;;;;;5076370;27;91656;-63
2022/07/23 04:44:47;;;;;;;0.60;0.60;;;;;;;;;;5075586;27;92344;-62
2022/07/23 04:47:13;;;;;;;0.60;0.60;;;;;;;;;;5079186;27;93448;-63
2022/07/23 04:49:41;;;;;;;0.77;0.65;;;;;;;;;;5074065;27;94839;-63
2022/07/23 04:52:07;;;;;;;0.70;0.70;;;;;;;;;;5075453;27;93570;-63
2022/07/23 04:54:33;;;;;;;0.63;0.63;;;;;;;;;;5075822;27;92441;-63
2022/07/23 04:56:59;;;;;;;2.15;0.70;;;;;;;;;;5076054;27;94624;-62
2022/07/23 04:59:26;;;;;;;1.05;0.60;;;;;;;;;;5075304;27;93768;-62
2022/07/23 05:01:52;;;;;;;0.65;0.65;;;;;;;;;;5075767;27;92422;-63
2022/07/23 05:04:19;;;;;;;1.33;0.60;;;;;;;;;;5074990;27;92297;-63
2022/07/23 05:06:45;;;;;;;1.23;0.60;;;;;;;;;;5075962;27;93024;-63
2022/07/23 05:09:11;;;;;;;0.70;0.70;;;;;;;;;;5078917;27;92446;-63
2022/07/23 05:11:38;;;;;;;0.77;0.60;;;;;;;;;;5075631;27;93512;-62
2022/07/23 05:14:04;;;;;;;1.00;0.73;;;;;;;;;;5073775;27;94920;-63
2022/07/23 05:16:30;;;;;;;0.57;0.57;;;;;;;;;;5075476;27;95615;-63
2022/07/23 05:18:57;;;;;;;1.25;0.60;;;;;;;;;;5075038;27;94413;-63
2022/07/23 05:21:23;;;;;;;0.95;0.75;;;;;;;;;;5075606;27;92421;-63
2022/07/23 05:23:49;;;;;;;0.70;0.70;;;;;;;;;;5075111;27;92935;-62
2022/07/23 05:26:16;;;;;;;1.23;0.68;;;;;;;;;;5075136;27;93844;-63
2022/07/23 05:28:43;;;;;;;0.95;0.57;;;;;;;;;;5078670;27;92379;-62
2022/07/23 05:31:15;;;;;;;0.82;0.60;;;;;;;;;;5076007;27;93231;-63
2022/07/23 05:33:41;;;;;;;0.45;0.45;;;;;;;;;;5074985;27;92871;-63
2022/07/23 05:36:08;;;;;;;0.70;0.70;;;;;;;;;;5075342;27;93162;-63
2022/07/23 05:38:34;;;;;;;1.95;0.70;;;;;;;;;;5072965;27;96146;-63
2022/07/23 05:41:00;;;;;;;0.85;0.68;;;;;;;;;;5074932;27;92451;-62
2022/07/23 05:43:27;;;;;;;0.70;0.70;;;;;;;;;;5074927;27;93923;-63
2022/07/23 05:45:53;;;;;;;2.78;0.70;;;;;;;;;;5075191;27;93440;-63
2022/07/23 05:48:20;;;;;;;0.90;0.70;;;;;;;;;;5074875;27;92554;-62
2022/07/23 05:50:47;;;;;;;0.68;0.60;;;;;;;;;;5077877;27;93228;-62
2022/07/23 05:53:13;;;;;;;0.93;0.68;;;;;;;;;;5075388;27;92550;-63
2022/07/23 05:55:39;;;;;;;1.30;0.60;;;;;;;;;;5075556;27;92937;-62
2022/07/23 05:58:06;;;;;;;1.02;0.70;;;;;;;;;;5074927;27;93506;-63
2022/07/23 06:00:32;;;;;;;0.80;0.77;;;;;;;;;;5074441;27;92555;-62
2022/07/23 06:02:58;;;;;;;0.77;0.70;;;;;;;;;;5073225;27;94795;-63
2022/07/23 06:05:25;;;;;;;2.15;0.60;;;;;;;;;;5074907;27;93774;-63
2022/07/23 06:07:51;;;;;;;2.03;0.50;;;;;;;;;;5075290;27;92484;-62
2022/07/23 06:10:17;;;;;;;0.50;0.50;;;;;;;;;;5074895;27;93210;-63
2022/07/23 06:12:44;;;;;;;0.70;0.70;;;;;;;;;;5081849;27;94485;-63
2022/07/23 06:15:11;;;;;;;0.50;0.50;;;;;;;;;;5078162;27;93235;-62
2022/07/23 06:17:39;;;;;;;0.75;0.60;;;;;;;;;;5078072;27;93604;-62
2022/07/23 06:20:06;;;;;;;0.70;0.70;;;;;;;;;;5079003;27;91752;-63
2022/07/23 06:22:32;;;;;;;0.60;0.60;;;;;;;;;;5078811;27;93300;-63
2022/07/23 06:24:59;;;;;;;0.80;0.63;;;;;;;;;;5078021;27;93487;-63
2022/07/23 06:27:25;;;;;;;0.98;0.60;;;;;;;;;;5076148;27;94899;-63
2022/07/23 06:29:52;;;;;;;0.80;0.60;;;;;;;;;;5077424;27;95576;-63
2022/07/23 06:32:18;;;;;;;0.75;0.50;;;;;;;;;;5078308;27;94842;-63
2022/07/23 06:34:45;;;;;;;0.75;0.68;;;;;;;;;;5063261;27;92403;-63
2022/07/23 06:37:14;;;;;;;0.70;0.70;;;;;;;;;;5077713;27;94824;-62
2022/07/23 06:39:41;;;;;;;0.60;0.60;;;;;;;;;;5078147;27;92376;-64
2022/07/23 06:42:07;;;;;;;0.50;0.50;;;;;;;;;;5077572;27;93177;-64
2022/07/23 06:44:34;;;;;;;0.82;0.55;;;;;;;;;;5077898;27;92740;-62
2022/07/23 06:47:00;;;;;;;0.80;0.65;;;;;;;;;;5078057;27;92504;-63
2022/07/23 06:49:26;;;;;;;0.60;0.60;;;;;;;;;;5077370;27;92965;-62
2022/07/23 06:51:52;;;;;;;2.35;0.57;;;;;;;;;;5075591;27;95496;-63
2022/07/23 06:54:19;;;;;;;0.65;0.52;;;;;;;;;;5077397;27;92573;-62
2022/07/23 06:56:45;;;;;;;1.00;0.60;;;;;;;;;;5080238;27;92812;-63
2022/07/23 06:59:11;;;;;;;0.50;0.50;;;;;;;;;;5077736;27;92430;-63
2022/07/23 07:01:38;;;;;;;0.57;0.55;;;;;;;;;;5077523;27;92450;-63
2022/07/23 07:04:04;;;;;;;1.00;0.90;;;;;;;;;;5077024;27;93448;-63
2022/07/23 07:06:30;;;;;;;0.50;0.50;;;;;;;;;;5077254;27;92426;-63
2022/07/23 07:08:57;;;;;;;0.50;0.50;;;;;;;;;;5077708;27;93436;-62
2022/07/23 07:11:25;;;;;;;0.50;0.50;;;;;;;;;;5077273;27;94104;-63
2022/07/23 07:13:51;;;;;;;0.50;0.50;;;;;;;;;;5077381;27;92552;-63
2022/07/23 07:16:18;;;;;;;0.60;0.60;;;;;;;;;;5076034;27;94655;-62
2022/07/23 07:18:44;;;;;;;0.82;0.60;;;;;;;;;;5080267;27;93553;-63
2022/07/23 07:21:10;;;;;;;0.60;0.60;;;;;;;;;;5077028;27;93221;-63
2022/07/23 07:23:37;;;;;;;0.57;0.57;;;;;;;;;;5075682;27;93521;-63
2022/07/23 07:26:03;;;;;;;0.88;0.60;;;;;;;;;;5076793;27;92476;-62
2022/07/23 07:28:29;;;;;;;0.40;0.40;;;;;;;;;;5076891;27;93193;-63
2022/07/23 07:30:56;;;;;;;0.70;0.50;;;;;;;;;;5077164;27;93363;-62
2022/07/23 07:33:22;;;;;;;0.55;0.43;;;;;;;;;;5077734;27;91621;-63
2022/07/23 07:35:48;;;;;;;0.95;0.60;;;;;;;;;;5077110;27;92310;-63
2022/07/23 07:38:15;;;;;;;0.40;0.40;;;;;;;;;;5079737;27;95388;-63
2022/07/23 07:40:41;;;;;;;0.52;0.50;;;;;;;;;;5074925;27;94761;-63
2022/07/23 07:43:07;;;;;;;0.80;0.50;;;;;;;;;;5076341;27;93171;-63
2022/07/23 07:45:34;;;;;;;2.38;0.50;;;;;;;;;;5076985;27;92519;-63
2022/07/23 07:48:01;;;;;;;0.43;0.43;;;;;;;;;;5077567;27;92408;-63
2022/07/23 07:50:28;;;;;;;0.60;0.50;;;;;;;;;;5076226;27;93499;-62
2022/07/23 07:52:54;;;;;;;0.95;0.55;;;;;;;;;;5077023;27;92346;-63
2022/07/23 07:55:21;;;;;;;1.83;0.43;;;;;;;;;;5076941;27;94202;-63
2022/07/23 07:57:47;;;;;;;0.38;0.38;;;;;;;;;;5076851;27;92959;-63
2022/07/23 08:00:15;;;;;;;0.63;0.63;;;;;;;;;;5080054;27;92397;-63
2022/07/23 08:02:46;;;;;;;0.60;0.60;;;;;;;;;;5076132;27;93459;-63
2022/07/23 08:05:13;;;;;;;0.50;0.50;;;;;;;;;;5074805;27;94786;-62
2022/07/23 08:07:39;;;;;;;1.85;0.60;;;;;;;;;;5076879;27;96622;-63
2022/07/23 08:10:08;;;;;;;0.50;0.40;;;;;;;;;;5076186;27;93975;-63
2022/07/23 08:12:39;;;;;;;0.68;0.68;;;;;;;;;;5076800;27;92319;-63
2022/07/23 08:15:06;;;;;;;0.50;0.50;;;;;;;;;;5076797;27;93126;-62
2022/07/23 08:17:38;;;;;;;0.35;0.35;;;;;;;;;;5076253;27;93697;-62
2022/07/23 08:20:06;;;;;;;0.50;0.50;;;;;;;;;;5058235;27;92523;-63
2022/07/23 08:22:54;;;;;;;0.35;0.35;;;;;;;;;;5079722;27;93307;-63
2022/07/23 08:25:31;;;;;;;0.47;0.47;;;;;;;;;;5076067;27;92424;-63
2022/07/23 08:27:58;;;;;;;0.85;0.47;;;;;;;;;;5076129;27;93087;-63
2022/07/23 08:30:25;;;;;;;0.68;0.47;;;;;;;;;;5073992;27;95817;-62
2022/07/23 08:32:53;;;;;;;0.68;0.50;;;;;;;;;;5076240;27;92497;-63
2022/07/23 08:35:38;;;;;;;0.40;0.40;;;;;;;;;;5076033;27;93317;-63
2022/07/23 08:38:08;;;;;;;0.93;0.63;;;;;;;;;;5075378;27;93529;-62
2022/07/23 08:40:36;;;;;;;1.75;0.60;;;;;;;;;;5075936;27;92509;-62
2022/07/23 08:43:10;;;;;;;0.40;0.40;;;;;;;;;;5075756;27;92480;-62
2022/07/23 08:45:38;;;;;;;0.57;0.57;;;;;;;;;;5078939;27;93771;-63
2022/07/23 08:48:07;;;;;;;0.55;0.50;;;;;;;;;;5076542;27;93116;-62
2022/07/23 08:50:36;;;;;;;0.80;0.60;;;;;;;;;;5075407;27;93588;-62
2022/07/23 08:53:03;;;;;;;;;;;;;;;;;;5076201;27;92542;-63
2022/07/23 08:55:29;;;;;;;0.80;0.57;;;;;;;;;;5074682;27;122382;-63
2022/07/23 08:57:55;;;;;;;0.40;0.40;;;;;;;;;;5057400;27;93413;-63
2022/07/23 09:00:22;;;;;;;0.77;0.50;;;;;;;;;;5075469;27;92460;-63
2022/07/23 09:02:49;;;;;;;0.90;0.60;;;;;;;;;;5075564;27;93823;-63
2022/07/23 09:05:15;;;;;;;0.40;0.40;;;;;;;;;;5075564;27;93604;-62
2022/07/23 09:08:00;;;;;;;0.43;0.40;;;;;;;;;;5078927;27;92435;-62
2022/07/23 09:10:27;;;;;;;0.50;0.45;;;;;;;;;;5075228;27;93940;-63
2022/07/23 09:12:53;;;;;;;0.93;0.47;;;;;;;;;;5076031;27;91697;-63
2022/07/23 09:15:19;;;;;;;0.50;0.50;;;;;;;;;;5075960;27;92485;-62
2022/07/23 09:17:45;;;;;;;0.98;0.70;;;;;;;;;;5075062;27;93739;-62
2022/07/23 09:20:13;;;;;;;1.23;0.80;;;;;;;;;;5073719;27;94834;-63
2022/07/23 09:22:44;;;;;;;0.40;0.40;;;;;;;;;;5056928;27;95843;-63
2022/07/23 09:25:15;;;;;;;0.40;0.40;;;;;;;;;;5075140;27;93491;-63
2022/07/23 09:27:54;;;;;;;0.50;0.50;;;;;;;;;;5075228;27;92374;-63
2022/07/23 09:30:21;;;;;;;0.50;0.50;;;;;;;;;;5078715;27;94365;-63
2022/07/23 09:33:06;;;;;;;0.50;0.50;;;;;;;;;;5075412;27;92424;-62
2022/07/23 09:35:49;;;;;;;0.60;0.60;;;;;;;;;;5075128;27;93295;-63
2022/07/23 09:38:15;;;;;;;0.57;0.50;;;;;;;;;;5053752;27;93916;-63
2022/07/23 09:40:43;;;;;;;1.40;0.60;;;;;;;;;;5054576;27;92455;-62
2022/07/23 09:43:09;;;;;;;1.00;0.50;;;;;;;;;;5055101;27;94551;-63
2022/07/23 09:45:35;;;;;;;1.20;0.40;;;;;;;;;;5053888;27;95800;-63
2022/07/23 09:48:11;;;;;;;0.50;0.50;;;;;;;;;;5058491;27;92470;-62
2022/07/23 09:50:38;;;;;;;0.50;0.50;;;;;;;;;;5061519;27;93136;-63
2022/07/23 09:53:04;;;;;;;0.52;0.52;;;;;;;;;;5058452;27;92426;-63
2022/07/23 09:55:39;;;;;;;0.30;0.30;;;;;;;;;;5058458;27;93635;-63
2022/07/23 09:58:06;;;;;;;0.40;0.40;;;;;;;;;;5057752;27;93607;-63
2022/07/23 10:00:33;;;;;;;0.55;0.50;;;;;;;;;;5058084;27;92378;-63
2022/07/23 10:02:59;;;;;;;0.40;0.40;;;;;;;;;;5058445;27;93310;-63
2022/07/23 10:05:28;;;;;;;0.75;0.60;;;;;;;;;;5057791;27;93373;-63
2022/07/23 10:07:54;;;;;;;0.50;0.50;;;;;;;;;;5058274;27;92453;-63
2022/07/23 10:10:22;;;;;;;0.40;0.40;;;;;;;;;;5056587;27;94695;-62
2022/07/23 10:15:17;;;;;;;1.02;0.50;;;;;;;;;;5058431;27;92344;-63
2022/07/23 10:17:44;;;;;;;0.40;0.40;;;;;;;;;;5058063;27;93168;-63
2022/07/23 10:20:10;;;;;;;0.50;0.50;;;;;;;;;;5057990;27;92464;-62
2022/07/23 10:22:38;;;;;;;0.43;0.43;;;;;;;;;;5057655;27;93192;-63
2022/07/23 10:25:26;;;;;;;0.45;0.40;;;;;;;;;;5057718;27;93587;-64
2022/07/23 10:28:14;;;;;;;0.70;0.50;;;;;;;;;;5058387;27;91645;-63
2022/07/23 10:30:59;;;;;;;0.60;0.60;;;;;;;;;;5056444;27;92451;-63
2022/07/23 10:33:31;;;;;;;1.17;0.43;;;;;;;;;;5057345;27;94931;-63
2022/07/23 10:36:03;;;;;;;0.40;0.40;;;;;;;;;;5059713;27;95911;-63
2022/07/23 10:38:34;;;;;;;0.50;0.50;;;;;;;;;;5072564;27;93633;-63
2022/07/23 10:41:02;;;;;;;0.88;0.52;;;;;;;;;;5077929;27;92438;-62
2022/07/23 10:43:29;;;;;;;0.45;0.45;;;;;;;;;;5077943;27;93355;-63
2022/07/23 10:46:16;;;;;;;0.47;0.47;;;;;;;;;;5077768;27;92325;-63
2022/07/23 10:48:42;;;;;;;0.38;0.38;;;;;;;;;;5077553;27;92664;-63
2022/07/23 10:51:13;;;;;;;0.63;0.52;;;;;;;;;;5078178;27;94264;-63
2022/07/23 10:53:53;;;;;;;0.52;0.52;;;;;;;;;;5078036;27;91630;-63
2022/07/23 10:56:37;;;;;;;0.60;0.50;;;;;;;;;;5077266;27;92464;-63
2022/07/23 10:59:04;;;;;;;0.50;0.50;;;;;;;;;;5081148;27;94364;-63
2022/07/23 11:01:32;;;;;;;0.60;0.60;;;;;;;;;;5075701;27;94966;-63
2022/07/23 11:03:59;;;;;;;0.47;0.47;;;;;;;;;;5077339;27;94909;-63
2022/07/23 11:06:45;;;;;;;0.40;0.40;;;;;;;;;;5077208;27;92462;-63
2022/07/23 11:09:49;;;;;;;0.65;0.40;;;;;;;;;;5077549;27;92452;-63
2022/07/23 11:12:18;;;;;;;0.50;0.50;;;;;;;;;;4974303;28;94206;-62
2022/07/23 11:14:57;;;;;;;1.05;0.60;;;;;;;;;;4974430;28;93692;-63
2022/07/23 11:17:24;;;;;;;1.00;0.50;;;;;;;;;;4974299;28;92521;-63
2022/07/23 11:20:12;;;;;;;0.47;0.47;;;;;;;;;;4975120;28;93477;-63
2022/07/23 11:22:39;;;;;;;0.40;0.40;;;;;;;;;;4977210;28;94728;-63
2022/07/23 11:25:05;;;;;;;0.50;0.50;;;;;;;;;;4974612;28;94818;-63
2022/07/23 11:27:42;;;;;;;0.63;0.52;;;;;;;;;;4972331;28;95534;-63
2022/07/23 11:30:10;;;;;;;0.47;0.47;;;;;;;;;;4974576;28;92413;-63
2022/07/23 11:32:40;;;;;;;0.57;0.57;;;;;;;;;;4974249;28;93178;-62
2022/07/23 11:35:20;;;;;;;0.40;0.40;;;;;;;;;;4974172;28;94631;-63
2022/07/23 11:37:47;;;;;;;0.85;0.63;;;;;;;;;;4973463;28;92603;-63
2022/07/23 11:40:15;;;;;;;0.60;0.47;;;;;;;;;;4974258;28;93647;-63
2022/07/23 11:42:55;;;;;;;0.30;0.30;;;;;;;;;;5007374;27;93316;-63
2022/07/23 11:45:22;;;;;;;0.25;0.25;;;;;;;;;;5081009;27;91598;-63
2022/07/23 11:47:48;;;;;;;0.40;0.40;;;;;;;;;;5076725;27;93744;-64
2022/07/23 11:50:15;;;;;;;0.50;0.50;;;;;;;;;;5076836;27;92405;-63
2022/07/23 11:52:41;;;;;;;0.50;0.50;;;;;;;;;;5074737;27;94820;-63
2022/07/23 11:55:09;;;;;;;0.45;0.45;;;;;;;;;;5076397;27;93611;-63
2022/07/23 11:57:36;;;;;;;0.90;0.55;;;;;;;;;;5076849;27;92465;-62
2022/07/23 12:00:02;;;;;;;0.52;0.52;;;;;;;;;;5076373;27;93190;-62
2022/07/23 12:02:30;;;;;;;0.70;0.50;;;;;;;;;;5058096;27;93546;-63
2022/07/23 12:04:57;;;;;;;0.57;0.52;;;;;;;;;;5079313;27;92480;-63
2022/07/23 12:07:32;;;;;;;0.60;0.60;;;;;;;;;;5076008;27;93514;-63
2022/07/23 12:09:59;;;;;;;0.68;0.50;;;;;;;;;;5076984;27;92068;-63
2022/07/23 12:12:26;;;;;;;1.17;0.50;;;;;;;;;;5076363;27;92781;-63
2022/07/23 12:14:56;;;;;;;0.55;0.55;;;;;;;;;;5076075;27;93371;-63
2022/07/23 12:17:30;;;;;;;0.40;0.40;;;;;;;;;;5074805;27;94783;-63
2022/07/23 12:19:57;;;;;;;0.40;0.40;;;;;;;;;;5075973;27;95421;-63
2022/07/23 12:22:25;;;;;;;0.50;0.50;;;;;;;;;;5076161;27;93859;-63
2022/07/23 12:24:58;;;;;;;1.65;0.60;;;;;;;;;;5076195;27;92508;-62
2022/07/23 12:27:25;;;;;;;0.52;0.50;;;;;;;;;;5079417;27;93138;-63
2022/07/23 12:29:52;;;;;;;0.47;0.47;;;;;;;;;;5076067;27;92448;-62
2022/07/23 12:32:19;;;;;;;0.73;0.57;;;;;;;;;;5075859;27;93727;-63
2022/07/23 12:34:47;;;;;;;0.60;0.50;;;;;;;;;;5076291;27;92817;-62
2022/07/23 12:37:25;;;;;;;0.40;0.40;;;;;;;;;;5075964;27;92453;-63
2022/07/23 12:39:51;;;;;;;0.90;0.50;;;;;;;;;;5075729;27;93489;-62
2022/07/23 12:42:18;;;;;;;0.45;0.45;;;;;;;;;;5074581;27;96830;-63
2022/07/23 12:45:03;;;;;;;0.57;0.50;;;;;;;;;;5075764;27;92432;-63
2022/07/23 12:47:30;;;;;;;0.40;0.40;;;;;;;;;;5075826;27;93616;-63
2022/07/23 12:49:56;;;;;;;0.52;0.50;;;;;;;;;;5078621;27;93866;-63
2022/07/23 12:52:22;;;;;;;0.50;0.50;;;;;;;;;;5076045;27;94645;-63
2022/07/23 12:54:49;;;;;;;0.50;0.50;;;;;;;;;;5075544;27;93812;-62
2022/07/23 12:57:15;;;;;;;0.60;0.60;;;;;;;;;;5076064;27;92439;-63
2022/07/23 12:59:44;;;;;;;0.63;0.50;;;;;;;;;;5080024;27;93528;-63
2022/07/23 13:02:10;;;;;;;0.50;0.50;;;;;;;;;;5096012;27;93553;-63
2022/07/23 13:04:38;;;;;;;0.73;0.60;;;;;;;;;;5096182;27;92492;-63
2022/07/23 13:07:07;;;;;;;0.60;0.60;;;;;;;;;;5094705;27;94751;-63
2022/07/23 13:09:34;;;;;;;0.75;0.47;;;;;;;;;;5095886;27;93687;-62
2022/07/23 13:12:08;;;;;;;0.50;0.50;;;;;;;;;;5099557;27;92441;-63
2022/07/23 13:14:36;;;;;;;1.15;0.60;;;;;;;;;;5095998;27;93405;-62
2022/07/23 13:17:03;;;;;;;0.60;0.60;;;;;;;;;;5078028;27;92409;-63
2022/07/23 13:19:32;;;;;;;0.63;0.63;;;;;;;;;;5075059;27;94027;-63
2022/07/23 13:21:58;;;;;;;1.17;1.05;;;;;;;;;;5074936;27;93569;-63
2022/07/23 13:24:27;;;;;;;0.73;0.60;;;;;;;;;;5075364;27;91597;-63
2022/07/23 13:26:53;;;;;;;1.25;0.60;;;;;;;;;;5075361;27;92443;-63
2022/07/23 13:29:20;;;;;;;0.38;0.38;;;;;;;;;;5074994;27;92376;-62
2022/07/23 13:31:48;;;;;;;0.65;0.60;;;;;;;;;;5073511;27;95315;-63
2022/07/23 13:34:16;;;;;;;0.77;0.40;;;;;;;;;;5078017;27;95448;-63
2022/07/23 13:36:43;;;;;;;0.63;0.60;;;;;;;;;;5074923;27;92459;-64
2022/07/23 13:39:10;;;;;;;0.60;0.60;;;;;;;;;;5075178;27;96032;-63
2022/07/23 13:41:37;;;;;;;0.50;0.50;;;;;;;;;;5075063;27;93610;-63
2022/07/23 13:44:04;;;;;;;0.60;0.60;;;;;;;;;;5074937;27;92365;-62
2022/07/23 13:46:32;;;;;;;0.60;0.60;;;;;;;;;;5075767;27;94152;-63
2022/07/23 13:49:00;;;;;;;0.60;0.60;;;;;;;;;;5075388;27;92891;-62
2022/07/23 13:51:27;;;;;;;0.80;0.80;;;;;;;;;;5075026;27;92424;-63
2022/07/23 13:53:54;;;;;;;0.60;0.60;;;;;;;;;;5077760;27;93126;-63
2022/07/23 13:56:20;;;;;;;0.50;0.50;;;;;;;;;;5073307;27;94832;-63
2022/07/23 13:58:47;;;;;;;0.40;0.40;;;;;;;;;;5074470;27;95560;-63
2022/07/23 14:01:14;;;;;;;0.50;0.50;;;;;;;;;;5074844;27;92408;-63
2022/07/23 14:03:40;;;;;;;0.65;0.63;;;;;;;;;;5075204;27;92812;-63
2022/07/23 14:06:06;;;;;;;0.50;0.50;;;;;;;;;;5074785;27;93158;-64
2022/07/23 14:08:41;;;;;;;0.47;0.40;;;;;;;;;;5074905;27;94485;-63
2022/07/23 14:11:09;;;;;;;0.60;0.60;;;;;;;;;;5074759;27;92467;-63
2022/07/23 14:13:36;;;;;;;0.63;0.60;;;;;;;;;;5075581;27;96496;-63
2022/07/23 14:16:02;;;;;;;1.65;0.57;;;;;;;;;;5078204;27;94426;-63
2022/07/23 14:18:29;;;;;;;0.60;0.60;;;;;;;;;;5074617;27;92378;-63
2022/07/23 14:20:59;;;;;;;;;;;;;;;;;;5073811;27;96894;-63
2022/07/23 14:23:25;;;;;;;0.50;0.50;;;;;;;;;;5075831;27;118581;-63
2022/07/23 14:25:51;;;;;;;0.60;0.60;;;;;;;;;;5074913;27;94054;-63
2022/07/23 14:28:18;;;;;;;0.47;0.47;;;;;;;;;;5074429;27;93266;-63
2022/07/23 14:30:46;;;;;;;0.70;0.70;;;;;;;;;;5074900;27;92442;-63
2022/07/23 14:33:15;;;;;;;0.57;0.57;;;;;;;;;;5077875;27;93248;-63
2022/07/23 14:35:41;;;;;;;0.50;0.50;;;;;;;;;;5077753;27;93638;-63
2022/07/23 14:38:07;;;;;;;0.85;0.52;;;;;;;;;;5080629;27;91727;-63
2022/07/23 14:40:34;;;;;;;0.52;0.52;;;;;;;;;;5078200;27;94472;-63
2022/07/23 14:43:00;;;;;;;0.50;0.50;;;;;;;;;;5078291;27;92434;-63
2022/07/23 14:45:28;;;;;;;0.40;0.40;;;;;;;;;;5076470;27;94816;-63
2022/07/23 14:47:54;;;;;;;0.60;0.60;;;;;;;;;;5077841;27;93608;-63
2022/07/23 14:50:21;;;;;;;0.50;0.50;;;;;;;;;;5078280;27;92387;-64